sensor_id;sensor_type;location;lat;lon;timestamp;pressure;altitude;pressure_sealevel;temperature;humidity
70468;BME280;57934;51.532;7.684;2023-02-14T00:02:16;102285.22;;;3.02;nan
70468;BME280;57934;51.532;7.684;2023-02-14T00:04:42;102282.97;;;2.96;nan
70468;BME280;57934;51.532;7.684;2023-02-14T00:07:10;102279.06;;;2.89;nan
70468;BME280;57934;51.532;7.684;2023-02-14T00:09:36;102274.59;;;2.91;nan
70468;BME280;57934;51.532;7.684;2023-02-14T00:12:03;102276.66;;;2.86;nan
70468;BME280;57934;51.532;7.684;2023-02-14T00:14:29;102281.97;;;2.84;nan
70468;BME280;57934;51.532;7.684;2023-02-14T00:17:14;102277.47;;;2.86;nan
70468;BME280;57934;51.532;7.684;2023-02-14T00:19:40;102271.06;;;2.78;nan
70468;BME280;57934;51.532;7.684;2023-02-14T00:22:06;102267.53;;;2.79;nan
70468;BME280;57934;51.532;7.684;2023-02-14T00:24:32;102268.19;;;2.82;nan
70468;BME280;57934;51.532;7.684;2023-02-14T00:26:58;102268.19;;;2.82;nan
70468;BME280;57934;51.532;7.684;2023-02-14T00:29:30;102263.06;;;2.81;nan
70468;BME280;57934;51.532;7.684;2023-02-14T00:31:56;102269.38;;;2.77;nan
70468;BME280;57934;51.532;7.684;2023-02-14T00:34:23;102271.53;;;2.84;nan
70468;BME280;57934;51.532;7.684;2023-02-14T00:36:49;102269.94;;;2.82;nan
70468;BME280;57934;51.532;7.684;2023-02-14T00:39:16;102267.06;;;2.72;nan
70468;BME280;57934;51.532;7.684;2023-02-14T00:41:42;102271.44;;;2.72;nan
70468;BME280;57934;51.532;7.684;2023-02-14T00:44:10;102272.38;;;2.71;nan
70468;BME280;57934;51.532;7.684;2023-02-14T00:46:38;102271.72;;;2.67;nan
70468;BME280;57934;51.532;7.684;2023-02-14T00:49:05;102273.47;;;2.67;nan
70468;BME280;57934;51.532;7.684;2023-02-14T00:51:31;102277.13;;;2.64;nan
70468;BME280;57934;51.532;7.684;2023-02-14T00:53:57;102277.00;;;2.66;nan
70468;BME280;57934;51.532;7.684;2023-02-14T00:56:23;102275.72;;;2.58;nan
70468;BME280;57934;51.532;7.684;2023-02-14T00:58:49;102276.81;;;2.54;nan
70468;BME280;57934;51.532;7.684;2023-02-14T01:01:16;102276.28;;;2.49;nan
70468;BME280;57934;51.532;7.684;2023-02-14T01:03:43;102274.69;;;2.47;nan
70468;BME280;57934;51.532;7.684;2023-02-14T01:06:09;102276.63;;;2.43;nan
70468;BME280;57934;51.532;7.684;2023-02-14T01:08:35;102283.78;;;2.39;nan
70468;BME280;57934;51.532;7.684;2023-02-14T01:11:14;102283.84;;;2.38;nan
70468;BME280;57934;51.532;7.684;2023-02-14T01:13:42;102283.13;;;2.36;nan
70468;BME280;57934;51.532;7.684;2023-02-14T01:16:10;102282.47;;;2.32;nan
70468;BME280;57934;51.532;7.684;2023-02-14T01:18:37;102280.53;;;2.36;nan
70468;BME280;57934;51.532;7.684;2023-02-14T01:23:36;102283.19;;;2.34;nan
70468;BME280;57934;51.532;7.684;2023-02-14T01:26:04;102278.81;;;2.35;nan
70468;BME280;57934;51.532;7.684;2023-02-14T01:28:31;102275.50;;;2.33;nan
70468;BME280;57934;51.532;7.684;2023-02-14T01:31:08;102277.50;;;2.28;nan
70468;BME280;57934;51.532;7.684;2023-02-14T01:33:34;102283.19;;;2.34;nan
70468;BME280;57934;51.532;7.684;2023-02-14T01:36:00;102274.72;;;2.31;nan
70468;BME280;57934;51.532;7.684;2023-02-14T01:38:26;102275.38;;;2.34;nan
70468;BME280;57934;51.532;7.684;2023-02-14T01:40:52;102273.53;;;2.36;nan
70468;BME280;57934;51.532;7.684;2023-02-14T01:43:18;102277.91;;;2.36;nan
70468;BME280;57934;51.532;7.684;2023-02-14T01:45:44;102271.66;;;2.38;nan
70468;BME280;57934;51.532;7.684;2023-02-14T01:48:12;102275.22;;;2.37;nan
70468;BME280;57934;51.532;7.684;2023-02-14T01:50:42;102276.97;;;2.37;nan
70468;BME280;57934;51.532;7.684;2023-02-14T01:53:23;102268.53;;;2.33;nan
70468;BME280;57934;51.532;7.684;2023-02-14T01:55:58;102263.41;;;2.32;nan
70468;BME280;57934;51.532;7.684;2023-02-14T01:58:26;102269.63;;;2.29;nan
70468;BME280;57934;51.532;7.684;2023-02-14T02:00:53;102266.53;;;2.23;nan
70468;BME280;57934;51.532;7.684;2023-02-14T02:04:16;102256.97;;;2.23;nan
70468;BME280;57934;51.532;7.684;2023-02-14T02:06:37;102257.81;;;2.24;nan
70468;BME280;57934;51.532;7.684;2023-02-14T02:09:19;102261.34;;;2.23;nan
70468;BME280;57934;51.532;7.684;2023-02-14T02:11:47;102259.41;;;2.26;nan
70468;BME280;57934;51.532;7.684;2023-02-14T02:14:17;102261.16;;;2.26;nan
70468;BME280;57934;51.532;7.684;2023-02-14T02:19:35;102258.88;;;2.35;nan
70468;BME280;57934;51.532;7.684;2023-02-14T02:28:52;102255.84;;;2.27;nan
70468;BME280;57934;51.532;7.684;2023-02-14T02:37:36;102247.31;;;2.25;nan
70468;BME280;57934;51.532;7.684;2023-02-14T02:48:34;102242.59;;;2.32;nan
70468;BME280;57934;51.532;7.684;2023-02-14T02:51:08;102251.78;;;2.37;nan
70468;BME280;57934;51.532;7.684;2023-02-14T02:53:58;102247.59;;;2.35;nan
70468;BME280;57934;51.532;7.684;2023-02-14T02:56:45;102243.25;;;2.35;nan
70468;BME280;57934;51.532;7.684;2023-02-14T02:59:27;102243.03;;;2.38;nan
70468;BME280;57934;51.532;7.684;2023-02-14T03:02:04;102242.38;;;2.35;nan
70468;BME280;57934;51.532;7.684;2023-02-14T03:04:35;102236.28;;;2.36;nan
70468;BME280;57934;51.532;7.684;2023-02-14T03:10:05;102234.78;;;2.32;nan
70468;BME280;57934;51.532;7.684;2023-02-14T03:15:21;102228.28;;;2.39;nan
70468;BME280;57934;51.532;7.684;2023-02-14T03:18:05;102225.03;;;2.50;nan
70468;BME280;57934;51.532;7.684;2023-02-14T03:24:04;102219.16;;;2.75;nan
70468;BME280;57934;51.532;7.684;2023-02-14T03:26:37;102217.75;;;2.83;nan
70468;BME280;57934;51.532;7.684;2023-02-14T03:32:01;102221.72;;;3.03;nan
70468;BME280;57934;51.532;7.684;2023-02-14T03:34:37;102222.84;;;2.99;nan
70468;BME280;57934;51.532;7.684;2023-02-14T03:37:16;102216.59;;;3.02;nan
70468;BME280;57934;51.532;7.684;2023-02-14T03:39:58;102221.09;;;3.00;nan
70468;BME280;57934;51.532;7.684;2023-02-14T03:42:35;102212.47;;;2.85;nan
70468;BME280;57934;51.532;7.684;2023-02-14T03:45:04;102216.09;;;2.82;nan
70468;BME280;57934;51.532;7.684;2023-02-14T03:47:34;102214.22;;;2.84;nan
70468;BME280;57934;51.532;7.684;2023-02-14T03:50:06;102208.44;;;2.79;nan
70468;BME280;57934;51.532;7.684;2023-02-14T03:52:35;102205.38;;;2.73;nan
70468;BME280;57934;51.532;7.684;2023-02-14T03:55:04;102201.19;;;2.70;nan
70468;BME280;57934;51.532;7.684;2023-02-14T03:57:45;102211.81;;;2.67;nan
70468;BME280;57934;51.532;7.684;2023-02-14T04:00:14;102211.19;;;2.63;nan
70468;BME280;57934;51.532;7.684;2023-02-14T04:02:47;102214.69;;;2.62;nan
70468;BME280;57934;51.532;7.684;2023-02-14T04:05:17;102210.59;;;2.58;nan
70468;BME280;57934;51.532;7.684;2023-02-14T04:07:47;102207.34;;;2.55;nan
70468;BME280;57934;51.532;7.684;2023-02-14T04:10:14;102211.91;;;2.51;nan
70468;BME280;57934;51.532;7.684;2023-02-14T04:12:41;102197.47;;;2.46;nan
70468;BME280;57934;51.532;7.684;2023-02-14T04:15:07;102208.09;;;2.43;nan
70468;BME280;57934;51.532;7.684;2023-02-14T04:17:33;102206.53;;;2.40;nan
70468;BME280;57934;51.532;7.684;2023-02-14T04:20:18;102202.50;;;2.34;nan
70468;BME280;57934;51.532;7.684;2023-02-14T04:22:44;102199.19;;;2.32;nan
70468;BME280;57934;51.532;7.684;2023-02-14T04:25:11;102198.41;;;2.30;nan
70468;BME280;57934;51.532;7.684;2023-02-14T04:27:37;102196.19;;;2.24;nan
70468;BME280;57934;51.532;7.684;2023-02-14T04:30:03;102198.88;;;2.23;nan
70468;BME280;57934;51.532;7.684;2023-02-14T04:32:30;102199.81;;;2.22;nan
70468;BME280;57934;51.532;7.684;2023-02-14T04:34:56;102189.66;;;2.17;nan
70468;BME280;57934;51.532;7.684;2023-02-14T04:37:21;102193.09;;;2.18;nan
70468;BME280;57934;51.532;7.684;2023-02-14T04:39:48;102191.63;;;2.13;nan
70468;BME280;57934;51.532;7.684;2023-02-14T04:42:15;102191.78;;;2.10;nan
70468;BME280;57934;51.532;7.684;2023-02-14T04:44:41;102183.31;;;2.07;nan
70468;BME280;57934;51.532;7.684;2023-02-14T04:47:07;102183.06;;;2.11;nan
70468;BME280;57934;51.532;7.684;2023-02-14T04:49:34;102187.53;;;2.09;nan
70468;BME280;57934;51.532;7.684;2023-02-14T04:52:00;102181.66;;;2.06;nan
70468;BME280;57934;51.532;7.684;2023-02-14T04:54:26;102180.00;;;2.05;nan
70468;BME280;57934;51.532;7.684;2023-02-14T04:56:52;102162.81;;;2.02;nan
70468;BME280;57934;51.532;7.684;2023-02-14T04:59:18;102171.63;;;2.00;nan
70468;BME280;57934;51.532;7.684;2023-02-14T05:01:44;102170.88;;;1.98;nan
70468;BME280;57934;51.532;7.684;2023-02-14T05:04:10;102173.31;;;2.01;nan
70468;BME280;57934;51.532;7.684;2023-02-14T05:06:36;102168.28;;;1.98;nan
70468;BME280;57934;51.532;7.684;2023-02-14T05:09:02;102167.53;;;1.96;nan
70468;BME280;57934;51.532;7.684;2023-02-14T05:11:29;102162.50;;;1.92;nan
70468;BME280;57934;51.532;7.684;2023-02-14T05:13:55;102162.69;;;1.89;nan
70468;BME280;57934;51.532;7.684;2023-02-14T05:16:21;102157.47;;;1.89;nan
70468;BME280;57934;51.532;7.684;2023-02-14T05:18:47;102154.97;;;1.88;nan
70468;BME280;57934;51.532;7.684;2023-02-14T05:21:13;102150.88;;;1.84;nan
70468;BME280;57934;51.532;7.684;2023-02-14T05:23:39;102151.63;;;1.86;nan
70468;BME280;57934;51.532;7.684;2023-02-14T05:26:05;102148.00;;;1.88;nan
70468;BME280;57934;51.532;7.684;2023-02-14T05:28:32;102150.78;;;1.85;nan
70468;BME280;57934;51.532;7.684;2023-02-14T05:30:58;102153.66;;;1.81;nan
70468;BME280;57934;51.532;7.684;2023-02-14T05:33:24;102153.00;;;1.77;nan
70468;BME280;57934;51.532;7.684;2023-02-14T05:35:50;102149.75;;;1.74;nan
70468;BME280;57934;51.532;7.684;2023-02-14T05:38:17;102156.72;;;1.73;nan
70468;BME280;57934;51.532;7.684;2023-02-14T05:40:43;102150.94;;;1.68;nan
70468;BME280;57934;51.532;7.684;2023-02-14T05:43:09;102158.06;;;1.64;nan
70468;BME280;57934;51.532;7.684;2023-02-14T05:45:36;102150.44;;;1.61;nan
70468;BME280;57934;51.532;7.684;2023-02-14T05:48:02;102154.75;;;1.62;nan
70468;BME280;57934;51.532;7.684;2023-02-14T05:50:28;102157.41;;;1.61;nan
70468;BME280;57934;51.532;7.684;2023-02-14T05:52:54;102154.09;;;1.59;nan
70468;BME280;57934;51.532;7.684;2023-02-14T05:55:21;102154.44;;;1.53;nan
70468;BME280;57934;51.532;7.684;2023-02-14T05:57:47;102154.59;;;1.50;nan
70468;BME280;57934;51.532;7.684;2023-02-14T06:00:13;102152.09;;;1.48;nan
70468;BME280;57934;51.532;7.684;2023-02-14T06:02:39;102149.56;;;1.47;nan
70468;BME280;57934;51.532;7.684;2023-02-14T06:05:06;102153.28;;;1.42;nan
70468;BME280;57934;51.532;7.684;2023-02-14T06:07:32;102157.66;;;1.42;nan
70468;BME280;57934;51.532;7.684;2023-02-14T06:09:58;102157.66;;;1.42;nan
70468;BME280;57934;51.532;7.684;2023-02-14T06:12:24;102155.97;;;1.41;nan
70468;BME280;57934;51.532;7.684;2023-02-14T06:14:50;102161.34;;;1.38;nan
70468;BME280;57934;51.532;7.684;2023-02-14T06:17:16;102150.34;;;1.33;nan
70468;BME280;57934;51.532;7.684;2023-02-14T06:19:42;102162.25;;;1.37;nan
70468;BME280;57934;51.532;7.684;2023-02-14T06:22:08;102161.22;;;1.55;nan
70468;BME280;57934;51.532;7.684;2023-02-14T06:24:34;102159.38;;;1.72;nan
70468;BME280;57934;51.532;7.684;2023-02-14T06:27:00;102158.50;;;1.87;nan
70468;BME280;57934;51.532;7.684;2023-02-14T06:29:26;102159.53;;;1.99;nan
70468;BME280;57934;51.532;7.684;2023-02-14T06:31:52;102161.31;;;1.98;nan
70468;BME280;57934;51.532;7.684;2023-02-14T06:34:18;102179.31;;;1.87;nan
70468;BME280;57934;51.532;7.684;2023-02-14T06:36:44;102181.88;;;1.73;nan
70468;BME280;57934;51.532;7.684;2023-02-14T06:39:10;102180.81;;;1.61;nan
70468;BME280;57934;51.532;7.684;2023-02-14T06:41:36;102187.88;;;1.59;nan
70468;BME280;57934;51.532;7.684;2023-02-14T06:44:02;102184.78;;;1.52;nan
70468;BME280;57934;51.532;7.684;2023-02-14T06:46:28;102188.50;;;1.48;nan
70468;BME280;57934;51.532;7.684;2023-02-14T06:48:54;102179.25;;;1.42;nan
70468;BME280;57934;51.532;7.684;2023-02-14T06:51:19;102182.47;;;1.48;nan
70468;BME280;57934;51.532;7.684;2023-02-14T06:53:45;102179.44;;;1.39;nan
70468;BME280;57934;51.532;7.684;2023-02-14T06:56:11;102189.16;;;1.36;nan
70468;BME280;57934;51.532;7.684;2023-02-14T06:58:38;102184.06;;;1.34;nan
70468;BME280;57934;51.532;7.684;2023-02-14T07:01:04;102191.75;;;1.36;nan
70468;BME280;57934;51.532;7.684;2023-02-14T07:03:30;102189.00;;;1.39;nan
70468;BME280;57934;51.532;7.684;2023-02-14T07:05:56;102191.59;;;1.39;nan
70468;BME280;57934;51.532;7.684;2023-02-14T07:08:22;102194.84;;;1.42;nan
70468;BME280;57934;51.532;7.684;2023-02-14T07:10:48;102199.31;;;1.40;nan
70468;BME280;57934;51.532;7.684;2023-02-14T07:13:14;102206.09;;;1.43;nan
70468;BME280;57934;51.532;7.684;2023-02-14T07:15:40;102205.25;;;1.42;nan
70468;BME280;57934;51.532;7.684;2023-02-14T07:18:06;102209.28;;;1.48;nan
70468;BME280;57934;51.532;7.684;2023-02-14T07:20:36;102205.19;;;1.44;nan
70468;BME280;57934;51.532;7.684;2023-02-14T07:23:02;102204.25;;;1.45;nan
70468;BME280;57934;51.532;7.684;2023-02-14T07:25:28;102202.16;;;1.52;nan
70468;BME280;57934;51.532;7.684;2023-02-14T07:27:54;102209.56;;;1.58;nan
70468;BME280;57934;51.532;7.684;2023-02-14T07:30:20;102204.88;;;1.64;nan
70468;BME280;57934;51.532;7.684;2023-02-14T07:32:46;102195.41;;;1.63;nan
70468;BME280;57934;51.532;7.684;2023-02-14T07:35:12;102202.94;;;1.68;nan
70468;BME280;57934;51.532;7.684;2023-02-14T07:37:38;102210.50;;;1.73;nan
70468;BME280;57934;51.532;7.684;2023-02-14T07:40:06;102206.03;;;1.75;nan
70468;BME280;57934;51.532;7.684;2023-02-14T07:42:32;102205.56;;;1.82;nan
70468;BME280;57934;51.532;7.684;2023-02-14T07:44:59;102202.72;;;1.87;nan
70468;BME280;57934;51.532;7.684;2023-02-14T07:47:24;102196.25;;;1.94;nan
70468;BME280;57934;51.532;7.684;2023-02-14T07:49:51;102201.94;;;2.01;nan
70468;BME280;57934;51.532;7.684;2023-02-14T07:52:17;102194.63;;;2.22;nan
70468;BME280;57934;51.532;7.684;2023-02-14T07:54:43;102185.84;;;2.66;nan
70468;BME280;57934;51.532;7.684;2023-02-14T07:57:09;102186.22;;;3.42;nan
70468;BME280;57934;51.532;7.684;2023-02-14T07:59:35;102188.88;;;4.33;nan
70468;BME280;57934;51.532;7.684;2023-02-14T08:02:01;102178.78;;;5.26;nan
70468;BME280;57934;51.532;7.684;2023-02-14T08:04:27;102179.72;;;6.31;nan
70468;BME280;57934;51.532;7.684;2023-02-14T08:06:53;102176.69;;;7.35;nan
70468;BME280;57934;51.532;7.684;2023-02-14T08:09:19;102183.22;;;8.15;nan
70468;BME280;57934;51.532;7.684;2023-02-14T08:11:56;102185.19;;;8.93;nan
70468;BME280;57934;51.532;7.684;2023-02-14T08:14:42;102180.88;;;9.89;nan
70468;BME280;57934;51.532;7.684;2023-02-14T08:17:09;102180.84;;;10.83;nan
70468;BME280;57934;51.532;7.684;2023-02-14T08:19:36;102179.31;;;11.62;nan
70468;BME280;57934;51.532;7.684;2023-02-14T08:22:02;102181.66;;;12.43;nan
70468;BME280;57934;51.532;7.684;2023-02-14T08:24:29;102177.94;;;13.21;nan
70468;BME280;57934;51.532;7.684;2023-02-14T08:26:56;102179.44;;;13.89;nan
70468;BME280;57934;51.532;7.684;2023-02-14T08:29:22;102190.25;;;14.43;nan
70468;BME280;57934;51.532;7.684;2023-02-14T08:31:48;102184.00;;;14.75;nan
70468;BME280;57934;51.532;7.684;2023-02-14T08:34:15;102186.25;;;15.17;nan
70468;BME280;57934;51.532;7.684;2023-02-14T08:36:42;102183.38;;;15.65;nan
70468;BME280;57934;51.532;7.684;2023-02-14T08:39:08;102192.19;;;16.03;nan
70468;BME280;57934;51.532;7.684;2023-02-14T08:41:35;102190.16;;;16.50;nan
70468;BME280;57934;51.532;7.684;2023-02-14T08:44:01;102190.00;;;17.02;nan
70468;BME280;57934;51.532;7.684;2023-02-14T08:46:28;102177.81;;;17.36;nan
70468;BME280;57934;51.532;7.684;2023-02-14T08:48:54;102177.38;;;17.54;nan
70468;BME280;57934;51.532;7.684;2023-02-14T08:51:21;102187.84;;;17.77;nan
70468;BME280;57934;51.532;7.684;2023-02-14T08:53:50;102185.34;;;18.03;nan
70468;BME280;57934;51.532;7.684;2023-02-14T08:56:17;102186.91;;;18.19;nan
70468;BME280;57934;51.532;7.684;2023-02-14T08:58:43;102179.63;;;18.41;nan
70468;BME280;57934;51.532;7.684;2023-02-14T09:01:11;102173.50;;;18.54;nan
70468;BME280;57934;51.532;7.684;2023-02-14T09:03:38;102177.06;;;18.68;nan
70468;BME280;57934;51.532;7.684;2023-02-14T09:06:06;102174.69;;;18.86;nan
70468;BME280;57934;51.532;7.684;2023-02-14T09:08:33;102175.94;;;18.97;nan
70468;BME280;57934;51.532;7.684;2023-02-14T09:11:07;102177.31;;;18.73;nan
70468;BME280;57934;51.532;7.684;2023-02-14T09:13:33;102181.06;;;18.92;nan
70468;BME280;57934;51.532;7.684;2023-02-14T09:16:03;102168.94;;;18.89;nan
70468;BME280;57934;51.532;7.684;2023-02-14T09:18:29;102178.81;;;18.89;nan
70468;BME280;57934;51.532;7.684;2023-02-14T09:20:55;102169.59;;;19.18;nan
70468;BME280;57934;51.532;7.684;2023-02-14T09:23:21;102175.56;;;19.33;nan
70468;BME280;57934;51.532;7.684;2023-02-14T09:25:47;102171.44;;;19.04;nan
70468;BME280;57934;51.532;7.684;2023-02-14T09:28:13;102165.28;;;19.43;nan
70468;BME280;57934;51.532;7.684;2023-02-14T09:30:39;102161.19;;;19.81;nan
70468;BME280;57934;51.532;7.684;2023-02-14T09:33:05;102165.31;;;19.83;nan
70468;BME280;57934;51.532;7.684;2023-02-14T09:35:31;102168.56;;;19.98;nan
70468;BME280;57934;51.532;7.684;2023-02-14T09:37:57;102153.31;;;19.99;nan
70468;BME280;57934;51.532;7.684;2023-02-14T09:40:41;102164.88;;;19.79;nan
70468;BME280;57934;51.532;7.684;2023-02-14T09:43:21;102159.75;;;19.65;nan
70468;BME280;57934;51.532;7.684;2023-02-14T09:45:53;102151.50;;;19.79;nan
70468;BME280;57934;51.532;7.684;2023-02-14T09:48:26;102158.31;;;19.75;nan
70468;BME280;57934;51.532;7.684;2023-02-14T09:50:57;102147.16;;;19.85;nan
70468;BME280;57934;51.532;7.684;2023-02-14T09:53:27;102153.88;;;20.14;nan
70468;BME280;57934;51.532;7.684;2023-02-14T09:56:03;102148.63;;;20.46;nan
70468;BME280;57934;51.532;7.684;2023-02-14T09:58:37;102147.72;;;20.14;nan
70468;BME280;57934;51.532;7.684;2023-02-14T10:01:22;102143.44;;;19.00;nan
70468;BME280;57934;51.532;7.684;2023-02-14T10:12:22;102146.00;;;16.91;nan
70468;BME280;57934;51.532;7.684;2023-02-14T10:14:52;102141.63;;;15.88;nan
70468;BME280;57934;51.532;7.684;2023-02-14T10:17:39;102137.78;;;14.61;nan
70468;BME280;57934;51.532;7.684;2023-02-14T10:20:30;102137.72;;;13.66;nan
70468;BME280;57934;51.532;7.684;2023-02-14T10:25:55;102136.31;;;12.38;nan
70468;BME280;57934;51.532;7.684;2023-02-14T10:28:30;102140.81;;;11.59;nan
70468;BME280;57934;51.532;7.684;2023-02-14T10:33:33;102131.06;;;10.70;nan
70468;BME280;57934;51.532;7.684;2023-02-14T10:39:02;102124.28;;;10.40;nan
70468;BME280;57934;51.532;7.684;2023-02-14T10:41:44;102126.59;;;10.53;nan
70468;BME280;57934;51.532;7.684;2023-02-14T10:46:55;102123.84;;;11.26;nan
70468;BME280;57934;51.532;7.684;2023-02-14T10:52:17;102121.78;;;11.82;nan
70468;BME280;57934;51.532;7.684;2023-02-14T10:54:54;102120.25;;;12.31;nan
70468;BME280;57934;51.532;7.684;2023-02-14T10:57:39;102121.16;;;12.48;nan
70468;BME280;57934;51.532;7.684;2023-02-14T11:00:30;102114.00;;;12.32;nan
70468;BME280;57934;51.532;7.684;2023-02-14T11:02:59;102122.34;;;12.20;nan
70468;BME280;57934;51.532;7.684;2023-02-14T11:05:27;102119.50;;;12.13;nan
70468;BME280;57934;51.532;7.684;2023-02-14T11:07:54;102108.53;;;12.00;nan
70468;BME280;57934;51.532;7.684;2023-02-14T11:10:26;102109.25;;;12.10;nan
70468;BME280;57934;51.532;7.684;2023-02-14T11:12:55;102100.31;;;12.11;nan
70468;BME280;57934;51.532;7.684;2023-02-14T11:15:34;102101.00;;;12.13;nan
70468;BME280;57934;51.532;7.684;2023-02-14T11:18:23;102098.91;;;12.83;nan
70468;BME280;57934;51.532;7.684;2023-02-14T11:23:41;102078.41;;;14.77;nan
70468;BME280;57934;51.532;7.684;2023-02-14T11:26:15;102070.53;;;15.97;nan
70468;BME280;57934;51.532;7.684;2023-02-14T11:28:49;102069.88;;;17.60;nan
70468;BME280;57934;51.532;7.684;2023-02-14T11:31:24;102062.75;;;18.70;nan
70468;BME280;57934;51.532;7.684;2023-02-14T11:33:50;102064.91;;;18.26;nan
70468;BME280;57934;51.532;7.684;2023-02-14T11:36:16;102063.72;;;17.59;nan
70468;BME280;57934;51.532;7.684;2023-02-14T11:38:44;102057.00;;;17.07;nan
70468;BME280;57934;51.532;7.684;2023-02-14T11:41:13;102059.78;;;17.49;nan
70468;BME280;57934;51.532;7.684;2023-02-14T11:43:44;102044.09;;;18.76;nan
70468;BME280;57934;51.532;7.684;2023-02-14T11:46:45;102039.22;;;21.00;nan
70468;BME280;57934;51.532;7.684;2023-02-14T11:49:28;102044.47;;;22.42;nan
70468;BME280;57934;51.532;7.684;2023-02-14T11:51:56;102035.53;;;24.29;nan
70468;BME280;57934;51.532;7.684;2023-02-14T11:54:28;102027.84;;;25.17;nan
70468;BME280;57934;51.532;7.684;2023-02-14T11:57:01;102026.16;;;24.99;nan
70468;BME280;57934;51.532;7.684;2023-02-14T11:59:31;102022.91;;;25.97;nan
70468;BME280;57934;51.532;7.684;2023-02-14T12:02:03;102016.03;;;26.38;nan
70468;BME280;57934;51.532;7.684;2023-02-14T12:04:38;102010.59;;;27.02;nan
70468;BME280;57934;51.532;7.684;2023-02-14T12:07:36;102013.88;;;27.04;nan
70468;BME280;57934;51.532;7.684;2023-02-14T12:10:08;102003.81;;;27.42;nan
70468;BME280;57934;51.532;7.684;2023-02-14T12:15:28;101998.63;;;28.24;nan
70468;BME280;57934;51.532;7.684;2023-02-14T12:20:44;101992.78;;;29.43;nan
70468;BME280;57934;51.532;7.684;2023-02-14T12:24:14;101999.94;;;29.29;nan
70468;BME280;57934;51.532;7.684;2023-02-14T12:26:29;101989.72;;;26.98;nan
70468;BME280;57934;51.532;7.684;2023-02-14T12:31:26;101985.28;;;18.76;nan
70468;BME280;57934;51.532;7.684;2023-02-14T12:33:52;101985.38;;;16.55;nan
70468;BME280;57934;51.532;7.684;2023-02-14T12:42:39;101983.28;;;13.64;nan
70468;BME280;57934;51.532;7.684;2023-02-14T12:51:26;101972.00;;;12.82;nan
70468;BME280;57934;51.532;7.684;2023-02-14T13:04:57;101947.34;;;12.81;nan
70468;BME280;57934;51.532;7.684;2023-02-14T13:07:30;101951.97;;;12.79;nan
70468;BME280;57934;51.532;7.684;2023-02-14T13:15:31;101936.59;;;12.75;nan
70468;BME280;57934;51.532;7.684;2023-02-14T13:20:43;101936.09;;;12.71;nan
70468;BME280;57934;51.532;7.684;2023-02-14T13:25:58;101930.47;;;12.66;nan
70468;BME280;57934;51.532;7.684;2023-02-14T13:28:26;101921.03;;;12.63;nan
70468;BME280;57934;51.532;7.684;2023-02-14T13:30:54;101921.03;;;12.63;nan
70468;BME280;57934;51.532;7.684;2023-02-14T13:33:33;101919.56;;;12.61;nan
70468;BME280;57934;51.532;7.684;2023-02-14T13:36:09;101916.75;;;12.62;nan
70468;BME280;57934;51.532;7.684;2023-02-14T13:38:41;101907.31;;;12.60;nan
70468;BME280;57934;51.532;7.684;2023-02-14T13:41:09;101906.16;;;12.54;nan
70468;BME280;57934;51.532;7.684;2023-02-14T13:43:49;101905.00;;;12.65;nan
70468;BME280;57934;51.532;7.684;2023-02-14T13:46:18;101898.72;;;12.66;nan
70468;BME280;57934;51.532;7.684;2023-02-14T13:48:55;101897.88;;;12.65;nan
70468;BME280;57934;51.532;7.684;2023-02-14T13:51:49;101896.41;;;12.71;nan
70468;BME280;57934;51.532;7.684;2023-02-14T13:56:51;101896.22;;;12.81;nan
70468;BME280;57934;51.532;7.684;2023-02-14T13:59:32;101891.75;;;12.81;nan
70468;BME280;57934;51.532;7.684;2023-02-14T14:02:30;101891.59;;;12.75;nan
70468;BME280;57934;51.532;7.684;2023-02-14T14:10:47;101885.63;;;12.81;nan
70468;BME280;57934;51.532;7.684;2023-02-14T14:21:32;101878.84;;;12.86;nan
70468;BME280;57934;51.532;7.684;2023-02-14T14:24:21;101882.16;;;12.80;nan
70468;BME280;57934;51.532;7.684;2023-02-14T14:26:56;101881.00;;;12.75;nan
70468;BME280;57934;51.532;7.684;2023-02-14T14:29:29;101881.34;;;12.72;nan
70468;BME280;57934;51.532;7.684;2023-02-14T14:31:56;101874.06;;;12.65;nan
70468;BME280;57934;51.532;7.684;2023-02-14T14:34:26;101871.44;;;12.65;nan
70468;BME280;57934;51.532;7.684;2023-02-14T14:37:15;101871.59;;;12.64;nan
70468;BME280;57934;51.532;7.684;2023-02-14T14:39:42;101864.97;;;12.60;nan
70468;BME280;57934;51.532;7.684;2023-02-14T14:42:14;101859.84;;;12.58;nan
70468;BME280;57934;51.532;7.684;2023-02-14T14:44:56;101858.69;;;12.61;nan
70468;BME280;57934;51.532;7.684;2023-02-14T14:47:28;101854.25;;;12.53;nan
70468;BME280;57934;51.532;7.684;2023-02-14T14:50:06;101852.75;;;12.51;nan
70468;BME280;57934;51.532;7.684;2023-02-14T14:52:37;101847.63;;;12.49;nan
70468;BME280;57934;51.532;7.684;2023-02-14T14:55:06;101851.25;;;12.48;nan
70468;BME280;57934;51.532;7.684;2023-02-14T14:57:35;101852.91;;;12.49;nan
70468;BME280;57934;51.532;7.684;2023-02-14T15:00:23;101851.44;;;12.47;nan
70468;BME280;57934;51.532;7.684;2023-02-14T15:03:06;101835.56;;;12.38;nan
70468;BME280;57934;51.532;7.684;2023-02-14T15:05:38;101844.19;;;12.32;nan
70468;BME280;57934;51.532;7.684;2023-02-14T15:11:00;101835.06;;;12.27;nan
70468;BME280;57934;51.532;7.684;2023-02-14T15:13:45;101841.69;;;12.23;nan
70468;BME280;57934;51.532;7.684;2023-02-14T15:16:28;101841.03;;;12.21;nan
70468;BME280;57934;51.532;7.684;2023-02-14T15:19:07;101836.56;;;12.13;nan
70468;BME280;57934;51.532;7.684;2023-02-14T15:21:34;101834.75;;;12.13;nan
70468;BME280;57934;51.532;7.684;2023-02-14T15:24:01;101831.09;;;12.06;nan
70468;BME280;57934;51.532;7.684;2023-02-14T15:26:30;101828.97;;;12.02;nan
70468;BME280;57934;51.532;7.684;2023-02-14T15:29:02;101827.97;;;11.94;nan
70468;BME280;57934;51.532;7.684;2023-02-14T15:31:33;101830.25;;;11.89;nan
70468;BME280;57934;51.532;7.684;2023-02-14T15:34:00;101826.59;;;11.82;nan
70468;BME280;57934;51.532;7.684;2023-02-14T15:36:27;101826.56;;;11.74;nan
70468;BME280;57934;51.532;7.684;2023-02-14T15:38:55;101822.75;;;11.68;nan
70468;BME280;57934;51.532;7.684;2023-02-14T15:41:23;101819.97;;;11.62;nan